createdAt,value
2019-01-16T00:00:43.839Z,1003.87
2019-01-16T00:01:43.822Z,1003.88
2019-01-16T00:02:43.806Z,1003.81
2019-01-16T00:03:43.803Z,1003.90
2019-01-16T00:04:43.816Z,1003.85
2019-01-16T00:05:43.773Z,1003.84
2019-01-16T00:06:43.766Z,1003.82
2019-01-16T00:07:43.752Z,1003.80
2019-01-16T00:08:43.762Z,1003.83
2019-01-16T00:09:43.750Z,1003.92
2019-01-16T00:10:43.732Z,1003.76
2019-01-16T00:11:43.738Z,1003.78
2019-01-16T00:12:43.712Z,1003.76
2019-01-16T00:13:43.711Z,1003.87
2019-01-16T00:14:43.678Z,1003.81
2019-01-16T00:15:43.672Z,1003.72
2019-01-16T00:16:43.661Z,1003.83
2019-01-16T00:17:43.653Z,1003.81
2019-01-16T00:18:43.661Z,1003.76
2019-01-16T00:19:43.664Z,1003.96
2019-01-16T00:20:43.620Z,1003.81
2019-01-16T00:21:43.604Z,1003.77
2019-01-16T00:22:43.594Z,1003.85
2019-01-16T00:23:43.590Z,1003.82
2019-01-16T00:24:43.572Z,1003.82
2019-01-16T00:25:43.579Z,1003.83
2019-01-16T00:26:43.558Z,1003.87
2019-01-16T00:27:43.544Z,1003.86
2019-01-16T00:28:43.528Z,1003.92
2019-01-16T00:29:43.528Z,1003.86
2019-01-16T00:30:43.534Z,1003.89
2019-01-16T00:31:43.507Z,1003.82
2019-01-16T00:32:43.486Z,1003.79
2019-01-16T00:33:43.482Z,1003.90
2019-01-16T00:34:43.495Z,1003.69
2019-01-16T00:35:43.472Z,1003.86
2019-01-16T00:36:43.444Z,1003.93
2019-01-16T00:37:43.437Z,1003.87
2019-01-16T00:38:43.480Z,1003.71
2019-01-16T00:39:43.418Z,1003.92
2019-01-16T00:40:43.454Z,1003.95
2019-01-16T00:41:43.401Z,1003.87
2019-01-16T00:42:43.385Z,1003.92
2019-01-16T00:43:43.376Z,1003.98
2019-01-16T00:44:43.358Z,1003.96
2019-01-16T00:45:43.350Z,1003.92
2019-01-16T00:46:43.357Z,1003.88
2019-01-16T00:47:43.326Z,1003.98
2019-01-16T00:48:43.316Z,1003.98
2019-01-16T00:49:43.306Z,1003.97
2019-01-16T00:50:43.306Z,1003.96
2019-01-16T00:51:43.312Z,1003.99
2019-01-16T00:52:43.301Z,1004.03
2019-01-16T00:53:43.265Z,1003.90
2019-01-16T00:54:43.278Z,1003.98
2019-01-16T00:55:43.240Z,1004.04
2019-01-16T00:56:43.261Z,1004.10
2019-01-16T00:57:43.224Z,1004.03
2019-01-16T00:58:43.215Z,1004.07
2019-01-16T00:59:43.201Z,1004.11
2019-01-16T01:00:43.190Z,1004.22
2019-01-16T01:01:43.200Z,1004.18
2019-01-16T01:02:43.171Z,1004.21
2019-01-16T01:03:43.164Z,1004.27
2019-01-16T01:04:43.154Z,1004.32
2019-01-16T01:05:43.164Z,1004.19
2019-01-16T01:06:43.122Z,1004.15
2019-01-16T01:07:43.122Z,1004.21
2019-01-16T01:08:43.100Z,1004.17
2019-01-16T01:09:43.097Z,1004.25
2019-01-16T01:10:43.110Z,1004.09
2019-01-16T01:11:43.071Z,1004.26
2019-01-16T01:12:43.062Z,1004.18
2019-01-16T01:13:43.056Z,1004.28
2019-01-16T01:14:43.039Z,1004.34
2019-01-16T01:15:43.052Z,1004.28
2019-01-16T01:16:43.019Z,1004.29
2019-01-16T01:17:43.003Z,1004.58
2019-01-16T01:18:42.994Z,1004.31
2019-01-16T01:19:42.989Z,1004.39
2019-01-16T01:20:42.999Z,1004.49
2019-01-16T01:21:42.970Z,1004.40
2019-01-16T01:22:42.976Z,1004.39
2019-01-16T01:23:42.944Z,1004.34
2019-01-16T01:24:42.935Z,1004.54
2019-01-16T01:25:42.921Z,1004.36
2019-01-16T01:26:42.914Z,1004.49
2019-01-16T01:27:42.930Z,1004.62
2019-01-16T01:28:42.893Z,1004.52
2019-01-16T01:29:42.957Z,1004.51
2019-01-16T01:30:42.902Z,1004.39
2019-01-16T01:31:42.860Z,1004.54
2019-01-16T01:32:42.854Z,1004.36
2019-01-16T01:33:42.862Z,1004.42
2019-01-16T01:34:42.826Z,1004.51
2019-01-16T01:35:42.812Z,1004.51
2019-01-16T01:36:42.821Z,1004.42
2019-01-16T01:37:42.793Z,1004.59
2019-01-16T01:38:42.799Z,1004.47
2019-01-16T01:39:42.774Z,1004.50
2019-01-16T01:40:42.760Z,1004.62
2019-01-16T01:41:42.755Z,1004.53
2019-01-16T01:42:42.904Z,1004.62
2019-01-16T01:43:42.743Z,1004.58
2019-01-16T01:44:42.736Z,1004.52
2019-01-16T01:45:42.708Z,1004.63
2019-01-16T01:46:42.694Z,1004.58
2019-01-16T01:47:42.722Z,1004.61
2019-01-16T01:48:42.728Z,1004.65
2019-01-16T01:49:42.667Z,1004.66
2019-01-16T01:50:42.675Z,1004.69
2019-01-16T01:51:42.641Z,1004.64
2019-01-16T01:52:42.633Z,1004.62
2019-01-16T01:53:42.625Z,1004.66
2019-01-16T01:54:42.624Z,1004.73
2019-01-16T01:55:42.604Z,1004.72
2019-01-16T01:56:42.592Z,1004.68
2019-01-16T01:57:42.578Z,1004.77
2019-01-16T01:58:42.567Z,1004.63
2019-01-16T01:59:42.581Z,1004.80
2019-01-16T02:00:42.549Z,1004.69
2019-01-16T02:01:42.562Z,1004.91
2019-01-16T02:02:42.528Z,1004.75
2019-01-16T02:03:42.512Z,1004.73
2019-01-16T02:04:42.505Z,1004.81
2019-01-16T02:05:42.509Z,1004.81
2019-01-16T02:06:42.482Z,1004.83
2019-01-16T02:07:42.479Z,1005.02
2019-01-16T02:08:42.461Z,1004.80
2019-01-16T02:09:42.455Z,1004.82
2019-01-16T02:10:42.469Z,1004.68
2019-01-16T02:11:42.429Z,1004.85
2019-01-16T02:12:42.434Z,1004.80
2019-01-16T02:13:42.422Z,1004.80
2019-01-16T02:14:42.399Z,1004.82
2019-01-16T02:15:42.387Z,1004.81
2019-01-16T02:16:42.395Z,1004.92
2019-01-16T02:17:42.361Z,1004.84
2019-01-16T02:18:47.315Z,1004.86
2019-01-16T02:19:43.339Z,1005.10
2019-01-16T02:20:42.336Z,1004.97
2019-01-16T02:21:42.337Z,1005.00
2019-01-16T02:22:42.349Z,1004.83
2019-01-16T02:23:42.301Z,1005.00
2019-01-16T02:24:42.298Z,1004.96
2019-01-16T02:25:42.328Z,1004.97
2019-01-16T02:26:42.290Z,1004.91
2019-01-16T02:27:42.263Z,1005.01
2019-01-16T02:28:42.299Z,1004.99
2019-01-16T02:29:42.241Z,1005.06
2019-01-16T02:30:42.235Z,1005.06
2019-01-16T02:31:42.239Z,1005.02
2019-01-16T02:32:42.206Z,1005.08
2019-01-16T02:33:42.197Z,1005.02
2019-01-16T02:34:42.184Z,1005.08
2019-01-16T02:35:42.183Z,1004.97
2019-01-16T02:36:42.191Z,1005.06
2019-01-16T02:37:42.153Z,1004.97
2019-01-16T02:38:42.149Z,1005.08
2019-01-16T02:39:42.136Z,1005.06
2019-01-16T02:40:42.117Z,1005.08
2019-01-16T02:41:42.131Z,1004.99
2019-01-16T02:42:42.102Z,1005.03
2019-01-16T02:43:42.087Z,1005.09
2019-01-16T02:44:42.074Z,1005.05
2019-01-16T02:45:42.071Z,1005.18
2019-01-16T02:46:42.053Z,1005.10
2019-01-16T02:47:42.095Z,1005.12
2019-01-16T02:48:42.030Z,1005.15
2019-01-16T02:49:42.020Z,1005.12
2019-01-16T02:50:42.011Z,1005.10
2019-01-16T02:51:41.997Z,1005.24
2019-01-16T02:52:42.005Z,1005.13
2019-01-16T02:53:41.983Z,1005.19
2019-01-16T02:54:41.974Z,1005.17
2019-01-16T02:55:41.957Z,1005.18
2019-01-16T02:56:41.948Z,1005.21
2019-01-16T02:57:41.961Z,1005.16
2019-01-16T02:58:41.935Z,1005.19
2019-01-16T02:59:41.925Z,1005.13
2019-01-16T03:00:41.903Z,1005.15
2019-01-16T03:01:41.894Z,1005.12
2019-01-16T03:02:41.905Z,1005.21
2019-01-16T03:03:41.873Z,1005.18
2019-01-16T03:04:41.869Z,1005.21
2019-01-16T03:05:41.850Z,1005.21
2019-01-16T03:06:41.843Z,1005.12
2019-01-16T03:07:41.842Z,1005.11
2019-01-16T03:08:41.821Z,1005.17
2019-01-16T03:09:41.820Z,1005.20
2019-01-16T03:10:41.814Z,1005.22
2019-01-16T03:11:41.791Z,1005.18
2019-01-16T03:12:41.795Z,1005.18
2019-01-16T03:13:41.763Z,1005.24
2019-01-16T03:14:41.766Z,1005.25
2019-01-16T03:15:41.770Z,1005.21
2019-01-16T03:16:41.751Z,1005.20
2019-01-16T03:17:41.763Z,1005.27
2019-01-16T03:18:41.710Z,1005.32
2019-01-16T03:19:41.709Z,1005.25
2019-01-16T03:20:41.692Z,1005.26
2019-01-16T03:21:41.692Z,1005.22
2019-01-16T03:22:41.690Z,1005.17
2019-01-16T03:23:41.677Z,1005.19
2019-01-16T03:24:41.655Z,1005.25
2019-01-16T03:25:41.652Z,1005.25
2019-01-16T03:26:41.631Z,1005.27
2019-01-16T03:27:41.621Z,1005.23
2019-01-16T03:28:41.639Z,1005.21
2019-01-16T03:29:41.596Z,1005.29
2019-01-16T03:30:41.588Z,1005.25
2019-01-16T03:31:41.608Z,1005.24
2019-01-16T03:32:41.570Z,1005.24
2019-01-16T03:33:41.616Z,1005.21
2019-01-16T03:34:41.554Z,1005.25
2019-01-16T03:35:41.533Z,1005.23
2019-01-16T03:36:41.533Z,1005.18
2019-01-16T03:37:41.526Z,1005.26
2019-01-16T03:38:41.521Z,1005.25
2019-01-16T03:39:41.503Z,1005.27
2019-01-16T03:40:41.479Z,1005.20
2019-01-16T03:41:41.469Z,1005.23
2019-01-16T03:42:41.459Z,1005.22
2019-01-16T03:43:41.473Z,1005.24
2019-01-16T03:44:41.481Z,1005.26
2019-01-16T03:45:41.424Z,1005.17
2019-01-16T03:46:41.417Z,1005.13
2019-01-16T03:47:41.407Z,1005.13
2019-01-16T03:48:41.475Z,1005.15
2019-01-16T03:49:41.385Z,1005.22
2019-01-16T03:50:41.461Z,1005.19
2019-01-16T03:51:41.360Z,1005.19
2019-01-16T03:52:41.349Z,1005.17
2019-01-16T03:53:41.343Z,1005.15
2019-01-16T03:54:41.333Z,1005.20
2019-01-16T03:55:41.341Z,1005.19
2019-01-16T03:56:41.313Z,1005.22
2019-01-16T03:57:41.293Z,1005.20
2019-01-16T03:58:41.307Z,1005.15
2019-01-16T03:59:41.280Z,1005.20
2019-01-16T04:00:41.274Z,1005.19
2019-01-16T04:01:41.279Z,1005.15
2019-01-16T04:02:41.269Z,1005.20
2019-01-16T04:03:41.233Z,1005.17
2019-01-16T04:04:41.221Z,1005.19
2019-01-16T04:05:41.209Z,1005.13
2019-01-16T04:06:41.226Z,1005.11
2019-01-16T04:07:41.199Z,1005.19
2019-01-16T04:08:41.179Z,1005.15
2019-01-16T04:09:41.171Z,1005.08
2019-01-16T04:10:41.166Z,1005.07
2019-01-16T04:11:41.192Z,1005.10
2019-01-16T04:12:41.138Z,1005.11
2019-01-16T04:13:41.128Z,1005.11
2019-01-16T04:14:41.141Z,1005.07
2019-01-16T04:15:41.107Z,1005.12
2019-01-16T04:16:41.093Z,1005.14
2019-01-16T04:17:41.103Z,1005.08
2019-01-16T04:18:41.075Z,1005.14
2019-01-16T04:19:41.073Z,1005.09
2019-01-16T04:20:41.082Z,1005.10
2019-01-16T04:21:41.043Z,1005.04
2019-01-16T04:22:41.063Z,1005.05
2019-01-16T04:23:41.038Z,1005.06
2019-01-16T04:24:41.008Z,1005.04
2019-01-16T04:25:41.012Z,1005.06
2019-01-16T04:26:40.987Z,1005.06
2019-01-16T04:27:40.981Z,1005.00
2019-01-16T04:28:40.989Z,1005.00
2019-01-16T04:29:40.979Z,1005.00
2019-01-16T04:30:40.947Z,1005.00
2019-01-16T04:31:40.948Z,1004.98
2019-01-16T04:32:40.928Z,1004.97
2019-01-16T04:33:40.938Z,1004.98
2019-01-16T04:34:40.928Z,1004.96
2019-01-16T04:35:40.894Z,1005.02
2019-01-16T04:36:40.890Z,1004.89
2019-01-16T04:37:40.892Z,1005.00
2019-01-16T04:38:40.878Z,1004.94
2019-01-16T04:39:40.865Z,1004.89
2019-01-16T04:40:40.876Z,1004.93
2019-01-16T04:41:40.828Z,1004.90
2019-01-16T04:42:40.819Z,1004.91
2019-01-16T04:43:40.823Z,1004.96
2019-01-16T04:44:40.809Z,1004.90
2019-01-16T04:45:40.791Z,1004.90
2019-01-16T04:46:40.812Z,1004.96
2019-01-16T04:47:40.764Z,1004.88
2019-01-16T04:48:40.769Z,1004.98
2019-01-16T04:49:40.781Z,1004.95
2019-01-16T04:50:40.731Z,1004.91
2019-01-16T04:51:40.721Z,1004.90
2019-01-16T04:52:40.712Z,1004.93
2019-01-16T04:53:40.705Z,1004.84
2019-01-16T04:54:40.687Z,1004.77
2019-01-16T04:55:40.705Z,1004.81
2019-01-16T04:56:40.667Z,1004.80
2019-01-16T04:57:40.655Z,1004.78
2019-01-16T04:58:40.649Z,1004.84
2019-01-16T04:59:40.645Z,1004.83
2019-01-16T05:00:40.652Z,1004.83
2019-01-16T05:01:40.610Z,1004.80
2019-01-16T05:02:40.607Z,1004.78
2019-01-16T05:03:40.604Z,1004.76
2019-01-16T05:04:40.592Z,1004.83
2019-01-16T05:05:40.591Z,1004.77
2019-01-16T05:06:40.561Z,1004.73
2019-01-16T05:07:40.547Z,1004.75
2019-01-16T05:08:40.541Z,1004.73
2019-01-16T05:09:40.542Z,1004.74
2019-01-16T05:10:40.530Z,1004.73
2019-01-16T05:11:40.515Z,1004.72
2019-01-16T05:12:40.493Z,1004.70
2019-01-16T05:13:40.487Z,1004.74
2019-01-16T05:14:40.475Z,1004.74
2019-01-16T05:15:40.489Z,1004.77
2019-01-16T05:16:40.460Z,1004.73
2019-01-16T05:17:40.442Z,1004.82
2019-01-16T05:18:41.577Z,1004.79
2019-01-16T05:19:40.424Z,1004.81
2019-01-16T05:20:40.452Z,1004.76
2019-01-16T05:21:40.401Z,1004.85
2019-01-16T05:22:40.394Z,1004.82
2019-01-16T05:23:40.382Z,1004.79
2019-01-16T05:24:40.367Z,1004.85
2019-01-16T05:25:40.358Z,1004.90
2019-01-16T05:26:40.365Z,1004.83
2019-01-16T05:27:40.335Z,1004.76
2019-01-16T05:28:40.330Z,1004.89
2019-01-16T05:29:40.313Z,1004.94
2019-01-16T05:30:40.304Z,1004.90
2019-01-16T05:31:40.321Z,1004.88
2019-01-16T05:32:40.296Z,1004.88
2019-01-16T05:33:40.276Z,1004.92
2019-01-16T05:34:40.270Z,1004.87
2019-01-16T05:35:40.252Z,1004.93
2019-01-16T05:36:40.263Z,1004.90
2019-01-16T05:37:40.227Z,1004.90
2019-01-16T05:38:40.216Z,1005.03
2019-01-16T05:39:40.212Z,1004.99
2019-01-16T05:40:40.203Z,1004.99
2019-01-16T05:41:40.213Z,1005.07
2019-01-16T05:42:40.172Z,1005.00
2019-01-16T05:43:40.173Z,1005.05
2019-01-16T05:44:40.156Z,1004.95
2019-01-16T05:45:40.145Z,1004.92
2019-01-16T05:46:40.337Z,1004.94
2019-01-16T05:47:40.134Z,1005.05
2019-01-16T05:48:40.110Z,1004.94
2019-01-16T05:49:46.562Z,1004.97
2019-01-16T05:50:41.086Z,1004.96
2019-01-16T05:51:40.085Z,1004.89
2019-01-16T05:52:40.101Z,1004.91
2019-01-16T05:53:40.064Z,1004.94
2019-01-16T05:54:40.043Z,1005.02
2019-01-16T05:55:40.045Z,1004.94
2019-01-16T05:56:40.036Z,1004.87
2019-01-16T05:57:40.037Z,1004.95
2019-01-16T05:58:40.008Z,1004.99
2019-01-16T05:59:39.994Z,1004.90
2019-01-16T06:00:39.980Z,1004.96
2019-01-16T06:01:39.971Z,1005.03
2019-01-16T06:02:39.978Z,1005.00
2019-01-16T06:03:39.958Z,1005.03
2019-01-16T06:04:39.940Z,1005.01
2019-01-16T06:05:39.926Z,1004.99
2019-01-16T06:06:39.930Z,1005.04
2019-01-16T06:07:39.922Z,1005.03
2019-01-16T06:08:39.898Z,1005.03
2019-01-16T06:09:39.895Z,1005.00
2019-01-16T06:10:39.881Z,1004.99
2019-01-16T06:11:39.891Z,1005.01
2019-01-16T06:12:39.878Z,1004.97
2019-01-16T06:13:39.847Z,1004.94
2019-01-16T06:14:39.838Z,1004.93
2019-01-16T06:15:39.822Z,1004.96
2019-01-16T06:16:39.832Z,1004.97
2019-01-16T06:17:39.798Z,1004.92
2019-01-16T06:18:39.808Z,1004.91
2019-01-16T06:19:39.781Z,1005.03
2019-01-16T06:20:39.778Z,1004.97
2019-01-16T06:21:39.758Z,1004.95
2019-01-16T06:22:39.751Z,1004.96
2019-01-16T06:23:39.759Z,1004.91
2019-01-16T06:24:39.729Z,1004.95
2019-01-16T06:25:39.989Z,1004.87
2019-01-16T06:26:39.708Z,1004.91
2019-01-16T06:27:39.714Z,1004.97
2019-01-16T06:28:39.708Z,1004.98
2019-01-16T06:29:39.672Z,1004.88
2019-01-16T06:30:39.668Z,1004.93
2019-01-16T06:31:39.653Z,1004.97
2019-01-16T06:32:39.644Z,1004.94
2019-01-16T06:33:39.682Z,1004.95
2019-01-16T06:34:39.621Z,1004.96
2019-01-16T06:35:39.623Z,1005.00
2019-01-16T06:36:39.609Z,1005.03
2019-01-16T06:37:39.597Z,1004.98
2019-01-16T06:38:39.584Z,1005.01
2019-01-16T06:39:39.683Z,1004.96
2019-01-16T06:40:39.561Z,1004.98
2019-01-16T06:41:39.551Z,1004.95
2019-01-16T06:42:39.537Z,1004.96
2019-01-16T06:43:39.530Z,1004.99
2019-01-16T06:44:39.539Z,1004.99
2019-01-16T06:45:39.502Z,1005.00
2019-01-16T06:46:39.491Z,1005.04
2019-01-16T06:47:39.480Z,1005.01
2019-01-16T06:48:39.474Z,1004.99
2019-01-16T06:49:39.572Z,1005.01
2019-01-16T06:50:39.449Z,1004.98
2019-01-16T06:51:48.378Z,1005.02
2019-01-16T06:52:39.573Z,1004.97
2019-01-16T06:53:39.416Z,1004.99
2019-01-16T06:54:39.463Z,1004.99
2019-01-16T06:55:39.395Z,1004.96
2019-01-16T06:56:39.388Z,1004.98
2019-01-16T06:57:39.376Z,1005.01
2019-01-16T06:58:39.890Z,1005.01
2019-01-16T06:59:39.891Z,1005.04
2019-01-16T07:00:39.363Z,1005.08
2019-01-16T07:01:39.358Z,1005.10
2019-01-16T07:02:39.321Z,1005.12
2019-01-16T07:03:39.323Z,1005.12
2019-01-16T07:04:39.310Z,1005.13
2019-01-16T07:05:39.312Z,1005.13
2019-01-16T07:06:39.286Z,1005.09
2019-01-16T07:07:39.268Z,1005.05
2019-01-16T07:08:39.262Z,1005.09
2019-01-16T07:09:39.252Z,1005.07
2019-01-16T07:10:39.266Z,1004.99
2019-01-16T07:11:39.256Z,1005.14
2019-01-16T07:12:39.256Z,1005.17
2019-01-16T07:13:39.246Z,1005.20
2019-01-16T07:14:39.230Z,1005.18
2019-01-16T07:15:47.469Z,1005.18
2019-01-16T07:17:40.427Z,1005.15
2019-01-16T07:19:00.195Z,1005.12
2019-01-16T07:20:00.171Z,1005.17
2019-01-16T07:21:00.203Z,1005.14
2019-01-16T07:22:00.139Z,1005.19
2019-01-16T07:22:55.650Z,1005.23
2019-01-16T07:23:41.972Z,1005.21
2019-01-16T07:24:39.124Z,1005.16
2019-01-16T07:25:39.080Z,1005.20
2019-01-16T07:26:39.075Z,1005.21
2019-01-16T07:27:39.077Z,1005.21
2019-01-16T07:28:39.140Z,1005.13
2019-01-16T07:29:39.069Z,1005.14
2019-01-16T07:30:39.066Z,1005.16
2019-01-16T07:31:39.087Z,1005.17
2019-01-16T07:32:39.033Z,1005.11
2019-01-16T07:33:39.035Z,1005.10
2019-01-16T07:35:48.563Z,1005.22
2019-01-16T07:36:48.572Z,1005.20
2019-01-16T07:37:48.594Z,1005.23
2019-01-16T07:38:48.536Z,1005.19
2019-01-16T07:39:48.553Z,1005.21
2019-01-16T07:40:48.514Z,1005.15
2019-01-16T07:41:48.519Z,1005.22
2019-01-16T07:42:48.567Z,1005.19
2019-01-16T07:43:48.496Z,1005.20
2019-01-16T07:44:48.469Z,1005.14
2019-01-16T07:45:48.492Z,1005.16
2019-01-16T07:46:48.547Z,1005.10
2019-01-16T07:47:48.434Z,1005.14
2019-01-16T07:48:48.516Z,1005.15
2019-01-16T07:49:48.434Z,1005.18
2019-01-16T07:50:48.452Z,1005.17
2019-01-16T07:51:48.416Z,1005.19
2019-01-16T07:52:48.430Z,1005.13
2019-01-16T07:53:48.446Z,1005.16
2019-01-16T07:54:48.359Z,1005.20
2019-01-16T07:55:48.357Z,1005.23
2019-01-16T07:56:48.345Z,1005.20
2019-01-16T07:57:48.356Z,1005.13
2019-01-16T07:58:48.346Z,1005.21
2019-01-16T07:59:48.306Z,1005.18
2019-01-16T08:00:48.350Z,1005.12
2019-01-16T08:01:48.297Z,1005.08
2019-01-16T08:02:48.468Z,1005.09
2019-01-16T08:03:48.313Z,1005.12
2019-01-16T08:04:48.277Z,1005.12
2019-01-16T08:05:48.256Z,1005.18
2019-01-16T08:06:48.233Z,1005.16
2019-01-16T08:07:48.223Z,1005.17
2019-01-16T08:08:48.234Z,1005.13
2019-01-16T08:09:48.236Z,1005.17
2019-01-16T08:10:48.195Z,1005.18
2019-01-16T08:11:48.282Z,1005.12
2019-01-16T08:12:48.203Z,1005.10
2019-01-16T08:13:48.178Z,1005.11
2019-01-16T08:14:48.142Z,1005.14
2019-01-16T08:15:48.132Z,1005.12
2019-01-16T08:16:48.124Z,1005.09
2019-01-16T08:17:48.120Z,1005.12
2019-01-16T08:18:48.228Z,1005.12
2019-01-16T08:19:48.126Z,1005.07
2019-01-16T08:20:48.108Z,1005.07
2019-01-16T08:21:48.070Z,1005.03
2019-01-16T08:22:48.064Z,1005.04
2019-01-16T08:23:48.075Z,1005.05
2019-01-16T08:24:48.051Z,1005.08
2019-01-16T08:25:48.061Z,1005.09
2019-01-16T08:26:48.019Z,1005.12
2019-01-16T08:27:48.020Z,1005.09
2019-01-16T08:28:48.593Z,1005.06
2019-01-16T08:29:48.016Z,1005.01
2019-01-16T08:30:48.000Z,1005.02
2019-01-16T08:31:47.978Z,1005.06
2019-01-16T08:32:47.952Z,1005.05
2019-01-16T08:33:47.945Z,1005.06
2019-01-16T08:34:47.957Z,1005.11
2019-01-16T08:35:47.952Z,1005.11
2019-01-16T08:36:47.920Z,1005.15
2019-01-16T08:37:47.930Z,1005.10
2019-01-16T08:38:47.894Z,1005.16
2019-01-16T08:39:47.902Z,1005.14
2019-01-16T08:40:47.876Z,1005.15
2019-01-16T08:41:47.869Z,1005.19
2019-01-16T08:42:47.859Z,1005.10
2019-01-16T08:43:47.856Z,1005.10
2019-01-16T08:44:47.843Z,1005.12
2019-01-16T08:45:47.813Z,1005.10
2019-01-16T08:46:47.809Z,1005.17
2019-01-16T08:47:47.796Z,1005.12
2019-01-16T08:48:47.796Z,1005.16
2019-01-16T08:49:47.775Z,1005.07
2019-01-16T08:50:47.847Z,1005.11
2019-01-16T08:51:47.766Z,1005.10
2019-01-16T08:52:47.749Z,1005.08
2019-01-16T08:53:47.734Z,1005.13
2019-01-16T08:54:47.750Z,1005.19
2019-01-16T08:55:47.785Z,1005.13
2019-01-16T08:56:47.703Z,1005.13
2019-01-16T08:57:47.693Z,1005.19
2019-01-16T08:58:47.688Z,1005.17
2019-01-16T08:59:47.676Z,1005.17
2019-01-16T09:00:47.684Z,1005.16
2019-01-16T09:01:47.654Z,1005.18
2019-01-16T09:02:47.678Z,1005.18
2019-01-16T09:03:47.638Z,1005.13
2019-01-16T09:04:47.649Z,1005.13
2019-01-16T09:05:47.644Z,1005.14
2019-01-16T09:06:47.590Z,1005.21
2019-01-16T09:07:47.581Z,1005.20
2019-01-16T09:08:47.570Z,1005.22
2019-01-16T09:09:47.560Z,1005.15
2019-01-16T09:10:47.591Z,1005.14
2019-01-16T09:11:47.549Z,1005.11
2019-01-16T09:12:47.526Z,1005.12
2019-01-16T09:13:47.515Z,1005.08
2019-01-16T09:14:47.512Z,1005.05
2019-01-16T09:15:47.517Z,1005.07
2019-01-16T09:16:47.513Z,1005.17
2019-01-16T09:17:47.476Z,1005.07
2019-01-16T09:18:47.461Z,1005.06
2019-01-16T09:19:47.519Z,1005.09
2019-01-16T09:20:47.483Z,1005.13
2019-01-16T09:21:47.460Z,1005.04
2019-01-16T09:23:48.475Z,1005.15
2019-01-16T09:24:47.452Z,1005.10
2019-01-16T09:25:47.461Z,1005.06
2019-01-16T09:27:48.637Z,1005.16
2019-01-16T09:28:47.469Z,1005.08
2019-01-16T09:29:47.418Z,1005.10
2019-01-16T09:30:47.425Z,1005.12
2019-01-16T09:31:47.407Z,1005.11
2019-01-16T09:32:47.540Z,1005.11
2019-01-16T09:33:47.307Z,1005.13
2019-01-16T09:34:47.293Z,1005.11
2019-01-16T09:35:47.315Z,1005.12
2019-01-16T09:36:47.289Z,1005.09
2019-01-16T09:37:47.270Z,1005.09
2019-01-16T09:38:47.247Z,1005.13
2019-01-16T09:39:47.239Z,1005.15
2019-01-16T09:40:47.312Z,1005.10
2019-01-16T09:41:47.229Z,1005.14
2019-01-16T09:42:47.208Z,1005.09
2019-01-16T09:43:47.203Z,1005.12
2019-01-16T09:44:47.206Z,1005.11
2019-01-16T09:45:47.223Z,1005.09
2019-01-16T09:46:47.201Z,1005.10
2019-01-16T09:47:47.192Z,1005.05
2019-01-16T09:48:47.146Z,1005.12
2019-01-16T09:49:47.154Z,1005.13
2019-01-16T09:50:47.951Z,1005.06
2019-01-16T09:51:47.121Z,1005.09
2019-01-16T09:52:47.104Z,1004.99
2019-01-16T09:53:47.089Z,1005.04
2019-01-16T09:54:47.081Z,1004.97
2019-01-16T09:55:47.124Z,1005.00
2019-01-16T09:56:47.103Z,1004.98
2019-01-16T09:57:47.111Z,1004.98
2019-01-16T09:58:47.069Z,1004.92
2019-01-16T09:59:47.053Z,1004.98
2019-01-16T10:00:47.051Z,1004.96
2019-01-16T10:01:47.166Z,1004.96
2019-01-16T10:02:47.029Z,1005.00
2019-01-16T10:03:46.980Z,1004.98
2019-01-16T10:04:46.967Z,1004.97
2019-01-16T10:05:47.015Z,1004.92
2019-01-16T10:06:47.125Z,1004.95
2019-01-16T10:07:46.949Z,1004.98
2019-01-16T10:08:46.931Z,1004.94
2019-01-16T10:09:46.921Z,1004.97
2019-01-16T10:10:46.947Z,1004.96
2019-01-16T10:11:47.040Z,1004.96
2019-01-16T10:12:46.913Z,1004.89
2019-01-16T10:13:46.899Z,1004.90
2019-01-16T10:14:46.875Z,1004.89
2019-01-16T10:15:46.906Z,1004.88
2019-01-16T10:16:46.953Z,1004.85
2019-01-16T10:17:46.895Z,1004.84
2019-01-16T10:18:46.844Z,1004.82
2019-01-16T10:19:46.877Z,1004.83
2019-01-16T10:20:46.851Z,1004.85
2019-01-16T10:21:46.845Z,1004.78
2019-01-16T10:22:46.805Z,1004.73
2019-01-16T10:23:46.800Z,1004.80
2019-01-16T10:24:46.772Z,1004.79
2019-01-16T10:25:46.762Z,1004.71
2019-01-16T10:26:46.734Z,1004.73
2019-01-16T10:27:46.801Z,1004.73
2019-01-16T10:28:46.727Z,1004.71
2019-01-16T10:29:46.733Z,1004.71
2019-01-16T10:30:46.743Z,1004.73
2019-01-16T10:31:46.709Z,1004.70
2019-01-16T10:32:46.699Z,1004.68
2019-01-16T10:33:46.683Z,1004.68
2019-01-16T10:34:46.651Z,1004.67
2019-01-16T10:35:46.655Z,1004.67
2019-01-16T10:36:46.635Z,1004.66
2019-01-16T10:37:46.648Z,1004.63
2019-01-16T10:38:46.626Z,1004.62
2019-01-16T10:39:46.603Z,1004.59
2019-01-16T10:40:46.620Z,1004.63
2019-01-16T10:41:46.580Z,1004.59
2019-01-16T10:42:46.647Z,1004.61
2019-01-16T10:43:46.623Z,1004.61
2019-01-16T10:44:46.547Z,1004.60
2019-01-16T10:45:46.551Z,1004.55
2019-01-16T10:46:46.519Z,1004.52
2019-01-16T10:47:46.563Z,1004.52
2019-01-16T10:48:49.787Z,1004.49
2019-01-16T10:49:46.495Z,1004.47
2019-01-16T10:50:46.487Z,1004.57
2019-01-16T10:51:46.477Z,1004.48
2019-01-16T10:52:46.475Z,1004.48
2019-01-16T10:53:46.459Z,1004.47
2019-01-16T10:54:46.446Z,1004.47
2019-01-16T10:55:46.432Z,1004.49
2019-01-16T10:56:46.438Z,1004.41
2019-01-16T10:57:46.528Z,1004.44
2019-01-16T10:58:46.393Z,1004.40
2019-01-16T10:59:46.383Z,1004.41
2019-01-16T11:00:46.397Z,1004.39
2019-01-16T11:01:46.386Z,1004.35
2019-01-16T11:02:46.358Z,1004.41
2019-01-16T11:03:46.397Z,1004.33
2019-01-16T11:04:46.332Z,1004.31
2019-01-16T11:05:46.378Z,1004.31
2019-01-16T11:06:46.340Z,1004.38
2019-01-16T11:07:46.331Z,1004.32
2019-01-16T11:08:46.406Z,1004.22
2019-01-16T11:09:46.313Z,1004.26
2019-01-16T11:10:46.280Z,1004.29
2019-01-16T11:11:46.285Z,1004.30
2019-01-16T11:12:46.258Z,1004.32
2019-01-16T11:13:46.370Z,1004.27
2019-01-16T11:14:46.252Z,1004.25
2019-01-16T11:15:46.227Z,1004.24
2019-01-16T11:16:46.206Z,1004.15
2019-01-16T11:17:46.201Z,1004.23
2019-01-16T11:18:46.205Z,1004.15
2019-01-16T11:19:46.180Z,1004.14
2019-01-16T11:20:46.162Z,1004.15
2019-01-16T11:21:46.146Z,1004.12
2019-01-16T11:22:46.173Z,1004.15
2019-01-16T11:23:46.144Z,1004.12
2019-01-16T11:24:46.145Z,1004.13
2019-01-16T11:25:46.121Z,1004.14
2019-01-16T11:26:46.096Z,1004.14
2019-01-16T11:27:46.114Z,1004.08
2019-01-16T11:28:46.101Z,1004.07
2019-01-16T11:29:46.099Z,1004.04
2019-01-16T11:30:46.052Z,1004.08
2019-01-16T11:31:46.042Z,1004.07
2019-01-16T11:32:46.037Z,1003.99
2019-01-16T11:33:46.026Z,1004.03
2019-01-16T11:34:46.033Z,1004.02
2019-01-16T11:35:45.995Z,1004.01
2019-01-16T11:36:45.988Z,1003.98
2019-01-16T11:37:45.980Z,1004.08
2019-01-16T11:38:45.978Z,1003.97
2019-01-16T11:39:46.048Z,1003.99
2019-01-16T11:40:45.974Z,1004.05
2019-01-16T11:41:45.936Z,1003.98
2019-01-16T11:42:45.926Z,1004.02
2019-01-16T11:43:45.930Z,1003.97
2019-01-16T11:44:45.925Z,1003.97
2019-01-16T11:45:45.953Z,1004.03
2019-01-16T11:46:45.895Z,1003.93
2019-01-16T11:47:45.869Z,1003.96
2019-01-16T11:48:45.864Z,1003.94
2019-01-16T11:49:45.852Z,1003.93
2019-01-16T11:50:45.871Z,1003.94
2019-01-16T11:51:45.845Z,1003.88
2019-01-16T11:52:45.830Z,1003.96
2019-01-16T11:53:45.842Z,1003.93
2019-01-16T11:54:45.805Z,1003.95
2019-01-16T11:55:45.862Z,1003.93
2019-01-16T11:56:45.782Z,1003.94
2019-01-16T11:57:45.783Z,1003.90
2019-01-16T11:58:45.770Z,1003.90
2019-01-16T11:59:45.744Z,1003.95
2019-01-16T12:00:45.731Z,1003.91
2019-01-16T12:01:45.772Z,1003.88
2019-01-16T12:02:45.718Z,1003.92
2019-01-16T12:03:45.722Z,1003.89
2019-01-16T12:04:45.695Z,1003.89
2019-01-16T12:05:45.689Z,1003.89
2019-01-16T12:06:45.683Z,1003.81
2019-01-16T12:07:45.676Z,1003.86
2019-01-16T12:08:45.651Z,1003.80
2019-01-16T12:09:45.660Z,1003.75